METAR Data
IDs: Format: Raw Decoded Include TAF

Data at: 0203 UTC 01 Mar 2021

K2I0 010155Z AUTO 29003KT 10SM RA OVC100 15/13 A2988 RMK AO2 P0002 T01530132